createdAt,value
2017-08-30T00:00:57.154Z,1017.09
2017-08-30T00:01:58.981Z,1017.09
2017-08-30T00:03:00.799Z,1017.07
2017-08-30T00:04:02.693Z,1017.10
2017-08-30T00:05:04.579Z,1017.10
2017-08-30T00:06:06.474Z,1017.11
2017-08-30T00:07:20.635Z,1017.13
2017-08-30T00:08:22.515Z,1017.11
2017-08-30T00:09:24.400Z,1017.16
2017-08-30T00:10:26.285Z,1017.15
2017-08-30T00:11:28.108Z,1017.11
2017-08-30T00:12:29.927Z,1017.19
2017-08-30T00:13:31.810Z,1017.14
2017-08-30T00:14:33.696Z,1017.12
2017-08-30T00:15:35.581Z,1017.13
2017-08-30T00:16:49.791Z,1017.14
2017-08-30T00:17:51.673Z,1017.16
2017-08-30T00:18:53.560Z,1017.13
2017-08-30T00:19:55.441Z,1017.16
2017-08-30T00:20:57.265Z,1017.17
2017-08-30T00:21:59.086Z,1017.20
2017-08-30T00:23:00.980Z,1017.21
2017-08-30T00:24:02.864Z,1017.21
2017-08-30T00:25:04.750Z,1017.24
2017-08-30T00:26:18.957Z,1017.22
2017-08-30T00:27:20.841Z,1017.24
2017-08-30T00:28:22.730Z,1017.21
2017-08-30T00:29:24.615Z,1017.24
2017-08-30T00:30:26.451Z,1017.21
2017-08-30T00:31:28.283Z,1017.24
2017-08-30T00:32:30.167Z,1017.27
2017-08-30T00:33:32.052Z,1017.31
2017-08-30T00:34:33.935Z,1017.27
2017-08-30T00:35:48.096Z,1017.29
2017-08-30T00:36:49.978Z,1017.27
2017-08-30T00:37:51.895Z,1017.26
2017-08-30T00:38:54.102Z,1017.28
2017-08-30T00:39:55.951Z,1017.25
2017-08-30T00:40:57.774Z,1017.22
2017-08-30T00:41:59.658Z,1017.23
2017-08-30T00:43:01.543Z,1017.20
2017-08-30T00:44:03.424Z,1017.24
2017-08-30T00:45:17.596Z,1017.23
2017-08-30T00:46:19.480Z,1017.28
2017-08-30T00:47:21.372Z,1017.24
2017-08-30T00:48:23.258Z,1017.24
2017-08-30T00:49:25.083Z,1017.25
2017-08-30T00:50:26.904Z,1017.26
2017-08-30T00:51:28.801Z,1017.21
2017-08-30T00:52:30.687Z,1017.20
2017-08-30T00:53:32.571Z,1017.15
2017-08-30T00:54:46.728Z,1017.11
2017-08-30T00:55:48.622Z,1017.09
2017-08-30T00:56:50.503Z,1017.03
2017-08-30T00:57:52.385Z,1016.99
2017-08-30T00:58:54.212Z,1017.00
2017-08-30T00:59:56.033Z,1017.01
2017-08-30T01:00:57.924Z,1017.01
2017-08-30T01:01:59.808Z,1017.02
2017-08-30T01:03:01.695Z,1016.99
2017-08-30T01:04:15.855Z,1016.99
2017-08-30T01:05:17.747Z,1017.00
2017-08-30T01:06:19.634Z,1016.98
2017-08-30T01:07:21.533Z,1017.01
2017-08-30T01:08:23.358Z,1016.97
2017-08-30T01:09:25.190Z,1017.00
2017-08-30T01:10:27.073Z,1017.01
2017-08-30T01:11:28.956Z,1017.00
2017-08-30T01:12:30.837Z,1016.98
2017-08-30T01:13:44.996Z,1016.99
2017-08-30T01:14:46.893Z,1017.02
2017-08-30T01:15:48.775Z,1017.02
2017-08-30T01:16:50.658Z,1017.00
2017-08-30T01:17:52.484Z,1017.00
2017-08-30T01:18:54.304Z,1016.96
2017-08-30T01:19:56.191Z,1016.98
2017-08-30T01:20:58.075Z,1016.98
2017-08-30T01:21:59.959Z,1016.98
2017-08-30T01:23:14.118Z,1016.99
2017-08-30T01:24:15.998Z,1016.96
2017-08-30T01:25:17.883Z,1016.96
2017-08-30T01:26:19.776Z,1016.95
2017-08-30T01:27:21.599Z,1016.93
2017-08-30T01:28:23.421Z,1016.93
2017-08-30T01:29:25.315Z,1016.96
2017-08-30T01:30:27.197Z,1016.93
2017-08-30T01:31:29.081Z,1016.89
2017-08-30T01:32:43.238Z,1016.89
2017-08-30T01:33:45.122Z,1016.93
2017-08-30T01:34:47.010Z,1016.94
2017-08-30T01:35:48.885Z,1016.94
2017-08-30T01:36:50.707Z,1016.95
2017-08-30T01:37:52.531Z,1016.93
2017-08-30T01:38:54.411Z,1016.93
2017-08-30T01:39:56.294Z,1016.89
2017-08-30T01:40:58.176Z,1016.91
2017-08-30T01:42:12.335Z,1016.87
2017-08-30T01:43:14.220Z,1016.86
2017-08-30T01:44:16.114Z,1016.88
2017-08-30T01:45:17.997Z,1016.87
2017-08-30T01:46:19.816Z,1016.84
2017-08-30T01:47:21.638Z,1016.83
2017-08-30T01:48:23.520Z,1016.83
2017-08-30T01:49:25.405Z,1016.89
2017-08-30T01:50:27.289Z,1016.85
2017-08-30T01:51:41.448Z,1016.87
2017-08-30T01:52:43.332Z,1016.90
2017-08-30T01:53:45.210Z,1016.90
2017-08-30T01:54:47.089Z,1016.82
2017-08-30T01:55:48.912Z,1016.81
2017-08-30T01:56:50.733Z,1016.82
2017-08-30T01:57:52.615Z,1016.79
2017-08-30T01:58:54.499Z,1016.82
2017-08-30T01:59:56.381Z,1016.81
2017-08-30T02:01:10.537Z,1016.82
2017-08-30T02:02:12.419Z,1016.79
2017-08-30T02:03:14.302Z,1016.81
2017-08-30T02:04:16.181Z,1016.78
2017-08-30T02:05:18.005Z,1016.79
2017-08-30T02:06:19.825Z,1016.76
2017-08-30T02:07:21.707Z,1016.74
2017-08-30T02:08:23.592Z,1016.78
2017-08-30T02:09:25.473Z,1016.80
2017-08-30T02:10:39.630Z,1016.79
2017-08-30T02:11:41.510Z,1016.78
2017-08-30T02:12:43.388Z,1016.78
2017-08-30T02:13:45.270Z,1016.75
2017-08-30T02:14:47.093Z,1016.71
2017-08-30T02:15:48.914Z,1016.71
2017-08-30T02:16:50.793Z,1016.71
2017-08-30T02:17:52.678Z,1016.73
2017-08-30T02:18:54.557Z,1016.73
2017-08-30T02:20:08.713Z,1016.74
2017-08-30T02:21:10.595Z,1016.75
2017-08-30T02:22:12.474Z,1016.70
2017-08-30T02:23:14.357Z,1016.70
2017-08-30T02:24:16.180Z,1016.66
2017-08-30T02:25:18.002Z,1016.66
2017-08-30T02:26:19.882Z,1016.66
2017-08-30T02:27:21.766Z,1016.68
2017-08-30T02:28:23.647Z,1016.64
2017-08-30T02:29:37.801Z,1016.62
2017-08-30T02:30:39.683Z,1016.65
2017-08-30T02:31:41.567Z,1016.62
2017-08-30T02:32:43.448Z,1016.62
2017-08-30T02:33:45.272Z,1016.63
2017-08-30T02:34:47.092Z,1016.59
2017-08-30T02:35:48.972Z,1016.55
2017-08-30T02:36:50.865Z,1016.54
2017-08-30T02:37:52.748Z,1016.52
2017-08-30T02:39:06.907Z,1016.57
2017-08-30T02:40:09.157Z,1016.52
2017-08-30T02:41:11.108Z,1016.52
2017-08-30T02:42:13.008Z,1016.54
2017-08-30T02:43:14.909Z,1016.53
2017-08-30T02:44:16.717Z,1016.50
2017-08-30T02:45:18.599Z,1016.47
2017-08-30T02:46:20.503Z,1016.51
2017-08-30T02:47:22.397Z,1016.47
2017-08-30T02:48:36.552Z,1016.47
2017-08-30T02:49:38.433Z,1016.45
2017-08-30T02:50:40.314Z,1016.48
2017-08-30T02:51:42.195Z,1016.50
2017-08-30T02:52:44.018Z,1016.44
2017-08-30T02:53:45.837Z,1016.47
2017-08-30T02:54:47.731Z,1016.50
2017-08-30T02:55:49.614Z,1016.53
2017-08-30T02:56:51.498Z,1016.53
2017-08-30T02:58:05.650Z,1016.55
2017-08-30T02:59:07.533Z,1016.60
2017-08-30T03:00:09.415Z,1016.64
2017-08-30T03:01:11.306Z,1016.64
2017-08-30T03:02:13.118Z,1016.68
2017-08-30T03:03:14.939Z,1016.70
2017-08-30T03:04:16.820Z,1016.70
2017-08-30T03:05:18.704Z,1016.75
2017-08-30T03:06:20.586Z,1016.82
2017-08-30T03:07:34.750Z,1016.77
2017-08-30T03:08:36.632Z,1016.77
2017-08-30T03:09:38.513Z,1016.72
2017-08-30T03:10:40.396Z,1016.70
2017-08-30T03:11:42.218Z,1016.74
2017-08-30T03:12:44.040Z,1016.77
2017-08-30T03:13:45.919Z,1016.77
2017-08-30T03:14:47.814Z,1016.81
2017-08-30T03:15:49.695Z,1016.76
2017-08-30T03:17:03.850Z,1016.81
2017-08-30T03:18:05.731Z,1016.80
2017-08-30T03:19:07.611Z,1016.77
2017-08-30T03:20:09.491Z,1016.77
2017-08-30T03:21:11.313Z,1016.74
2017-08-30T03:22:13.135Z,1016.80
2017-08-30T03:23:15.016Z,1016.78
2017-08-30T03:24:16.901Z,1016.79
2017-08-30T03:25:18.785Z,1016.75
2017-08-30T03:26:32.988Z,1016.79
2017-08-30T03:27:34.869Z,1016.78
2017-08-30T03:28:36.750Z,1016.80
2017-08-30T03:29:38.636Z,1016.77
2017-08-30T03:30:40.461Z,1016.77
2017-08-30T03:31:42.273Z,1016.76
2017-08-30T03:32:44.154Z,1016.78
2017-08-30T03:33:46.039Z,1016.82
2017-08-30T03:34:47.920Z,1016.80
2017-08-30T03:36:02.077Z,1016.82
2017-08-30T03:37:03.960Z,1016.80
2017-08-30T03:38:05.852Z,1016.86
2017-08-30T03:39:07.734Z,1016.83
2017-08-30T03:40:09.566Z,1016.83
2017-08-30T03:41:11.385Z,1016.79
2017-08-30T03:42:13.266Z,1016.81
2017-08-30T03:43:15.161Z,1016.75
2017-08-30T03:44:17.044Z,1016.75
2017-08-30T03:45:31.198Z,1016.72
2017-08-30T03:46:33.082Z,1016.74
2017-08-30T03:47:34.965Z,1016.76
2017-08-30T03:48:36.846Z,1016.74
2017-08-30T03:49:38.668Z,1016.68
2017-08-30T03:50:40.489Z,1016.68
2017-08-30T03:51:42.370Z,1016.67
2017-08-30T03:52:44.265Z,1016.70
2017-08-30T03:53:46.149Z,1016.68
2017-08-30T03:55:00.314Z,1016.66
2017-08-30T03:56:02.200Z,1016.66
2017-08-30T03:57:04.078Z,1016.64
2017-08-30T03:58:05.959Z,1016.62
2017-08-30T03:59:07.787Z,1016.63
2017-08-30T04:00:09.606Z,1016.64
2017-08-30T04:01:11.503Z,1016.65
2017-08-30T04:02:13.370Z,1016.63
2017-08-30T04:03:15.256Z,1016.65
2017-08-30T04:04:29.411Z,1016.64
2017-08-30T04:05:31.297Z,1016.65
2017-08-30T04:06:33.180Z,1016.71
2017-08-30T04:07:35.062Z,1016.67
2017-08-30T04:08:36.895Z,1016.68
2017-08-30T04:09:38.733Z,1016.72
2017-08-30T04:10:40.616Z,1016.66
2017-08-30T04:11:42.518Z,1016.66
2017-08-30T04:12:44.387Z,1016.68
2017-08-30T04:13:58.546Z,1016.75
2017-08-30T04:15:00.431Z,1016.70
2017-08-30T04:16:02.315Z,1016.76
2017-08-30T04:17:04.198Z,1016.75
2017-08-30T04:18:06.025Z,1016.71
2017-08-30T04:19:07.849Z,1016.73
2017-08-30T04:20:09.736Z,1016.75
2017-08-30T04:21:11.619Z,1016.75
2017-08-30T04:22:13.520Z,1016.72
2017-08-30T04:23:27.674Z,1016.73
2017-08-30T04:24:29.560Z,1016.75
2017-08-30T04:25:31.446Z,1016.68
2017-08-30T04:26:33.330Z,1016.71
2017-08-30T04:27:35.161Z,1016.73
2017-08-30T04:28:36.983Z,1016.76
2017-08-30T04:29:38.870Z,1016.63
2017-08-30T04:30:40.755Z,1016.68
2017-08-30T04:31:42.662Z,1016.74
2017-08-30T04:32:56.851Z,1016.73
2017-08-30T04:33:58.741Z,1016.70
2017-08-30T04:35:00.623Z,1016.70
2017-08-30T04:36:02.509Z,1016.76
2017-08-30T04:37:04.337Z,1016.74
2017-08-30T04:38:06.164Z,1016.74
2017-08-30T04:39:08.047Z,1016.75
2017-08-30T04:40:09.933Z,1016.75
2017-08-30T04:41:11.816Z,1016.79
2017-08-30T04:42:26.027Z,1016.81
2017-08-30T04:43:27.914Z,1016.80
2017-08-30T04:44:29.798Z,1016.82
2017-08-30T04:45:31.682Z,1016.80
2017-08-30T04:46:33.518Z,1016.86
2017-08-30T04:47:35.348Z,1016.87
2017-08-30T04:48:37.234Z,1016.85
2017-08-30T04:49:39.122Z,1016.88
2017-08-30T04:50:41.008Z,1016.92
2017-08-30T04:51:55.169Z,1016.77
2017-08-30T04:52:57.057Z,1016.90
2017-08-30T04:53:58.941Z,1016.80
2017-08-30T04:55:00.825Z,1016.88
2017-08-30T04:56:02.651Z,1016.80
2017-08-30T04:57:04.476Z,1016.84
2017-08-30T04:58:06.362Z,1016.93
2017-08-30T04:59:08.247Z,1016.78
2017-08-30T05:00:10.136Z,1016.90
2017-08-30T05:01:24.297Z,1016.85
2017-08-30T05:02:26.187Z,1016.87
2017-08-30T05:03:28.072Z,1016.89
2017-08-30T05:04:30.082Z,1016.89
2017-08-30T05:05:31.913Z,1016.84
2017-08-30T05:06:33.740Z,1016.86
2017-08-30T05:07:35.630Z,1016.87
2017-08-30T05:08:37.514Z,1016.91
2017-08-30T05:09:39.401Z,1016.87
2017-08-30T05:10:53.561Z,1016.89
2017-08-30T05:11:55.448Z,1016.91
2017-08-30T05:12:57.336Z,1016.89
2017-08-30T05:13:59.221Z,1016.93
2017-08-30T05:15:01.048Z,1016.97
2017-08-30T05:16:02.871Z,1016.96
2017-08-30T05:17:04.757Z,1016.92
2017-08-30T05:18:06.644Z,1016.91
2017-08-30T05:19:08.530Z,1017.00
2017-08-30T05:20:22.693Z,1016.94
2017-08-30T05:21:24.576Z,1016.97
2017-08-30T05:22:26.472Z,1016.95
2017-08-30T05:23:28.361Z,1016.96
2017-08-30T05:24:30.182Z,1017.00
2017-08-30T05:25:32.007Z,1017.02
2017-08-30T05:26:33.892Z,1017.09
2017-08-30T05:27:35.781Z,1017.01
2017-08-30T05:28:37.667Z,1017.01
2017-08-30T05:29:51.837Z,1017.05
2017-08-30T05:30:53.713Z,1017.01
2017-08-30T05:31:55.609Z,1016.95
2017-08-30T05:32:57.495Z,1016.98
2017-08-30T05:33:59.323Z,1016.98
2017-08-30T05:35:01.151Z,1016.95
2017-08-30T05:36:03.036Z,1017.02
2017-08-30T05:37:04.950Z,1016.94
2017-08-30T05:38:06.837Z,1016.89
2017-08-30T05:39:20.996Z,1016.87
2017-08-30T05:40:22.884Z,1016.92
2017-08-30T05:41:24.768Z,1016.89
2017-08-30T05:42:26.654Z,1016.93
2017-08-30T05:43:28.487Z,1016.95
2017-08-30T05:44:30.311Z,1016.96
2017-08-30T05:45:32.208Z,1016.94
2017-08-30T05:46:34.097Z,1016.95
2017-08-30T05:47:35.982Z,1016.99
2017-08-30T05:48:50.145Z,1017.01
2017-08-30T05:49:52.030Z,1016.96
2017-08-30T05:50:53.914Z,1016.97
2017-08-30T05:51:55.798Z,1016.97
2017-08-30T05:52:57.626Z,1016.99
2017-08-30T05:53:59.452Z,1016.99
2017-08-30T05:55:01.339Z,1016.95
2017-08-30T05:56:03.225Z,1016.97
2017-08-30T05:57:05.121Z,1016.96
2017-08-30T05:58:19.284Z,1017.02
2017-08-30T05:59:21.169Z,1016.95
2017-08-30T06:00:23.058Z,1016.93
2017-08-30T06:01:24.941Z,1016.95
2017-08-30T06:02:26.779Z,1016.94
2017-08-30T06:03:28.595Z,1016.91
2017-08-30T06:04:30.480Z,1016.90
2017-08-30T06:05:32.367Z,1016.89
2017-08-30T06:06:34.257Z,1016.91
2017-08-30T06:07:48.418Z,1016.93
2017-08-30T06:08:50.308Z,1016.92
2017-08-30T06:09:52.194Z,1016.93
2017-08-30T06:10:54.080Z,1016.88
2017-08-30T06:11:55.908Z,1016.85
2017-08-30T06:12:57.735Z,1016.87
2017-08-30T06:13:59.621Z,1016.85
2017-08-30T06:15:01.513Z,1016.85
2017-08-30T06:16:03.402Z,1016.87
2017-08-30T06:17:17.566Z,1016.87
2017-08-30T06:18:19.453Z,1016.86
2017-08-30T06:19:21.337Z,1016.88
2017-08-30T06:20:23.222Z,1016.89
2017-08-30T06:21:25.061Z,1016.82
2017-08-30T06:22:26.899Z,1016.85
2017-08-30T06:23:28.787Z,1016.89
2017-08-30T06:24:30.676Z,1016.84
2017-08-30T06:25:32.569Z,1016.85
2017-08-30T06:26:46.732Z,1016.91
2017-08-30T06:27:48.626Z,1016.87
2017-08-30T06:28:50.516Z,1016.86
2017-08-30T06:29:52.405Z,1016.87
2017-08-30T06:30:54.237Z,1016.90
2017-08-30T06:31:56.063Z,1016.89
2017-08-30T06:32:57.952Z,1016.89
2017-08-30T06:33:59.840Z,1016.87
2017-08-30T06:35:01.728Z,1016.91
2017-08-30T06:36:15.888Z,1016.90
2017-08-30T06:37:17.777Z,1016.89
2017-08-30T06:38:19.663Z,1016.87
2017-08-30T06:39:21.550Z,1016.92
2017-08-30T06:40:23.378Z,1016.90
2017-08-30T06:41:25.209Z,1016.90
2017-08-30T06:42:27.099Z,1016.92
2017-08-30T06:43:28.992Z,1016.90
2017-08-30T06:44:30.880Z,1016.91
2017-08-30T06:45:45.043Z,1016.96
2017-08-30T06:46:46.932Z,1016.92
2017-08-30T06:47:48.819Z,1016.96
2017-08-30T06:48:50.706Z,1017.00
2017-08-30T06:49:52.534Z,1017.00
2017-08-30T06:50:54.363Z,1017.01
2017-08-30T06:51:56.250Z,1016.99
2017-08-30T06:52:58.141Z,1016.97
2017-08-30T06:54:00.030Z,1016.96
2017-08-30T06:55:14.190Z,1016.94
2017-08-30T06:56:16.078Z,1016.93
2017-08-30T06:57:17.965Z,1016.92
2017-08-30T06:58:19.854Z,1016.86
2017-08-30T06:59:21.682Z,1016.88
2017-08-30T07:00:23.509Z,1016.87
2017-08-30T07:01:25.409Z,1016.86
2017-08-30T07:02:27.288Z,1016.86
2017-08-30T07:03:29.174Z,1016.89
2017-08-30T07:04:43.349Z,1016.87
2017-08-30T07:05:45.237Z,1016.91
2017-08-30T07:06:47.137Z,1016.92
2017-08-30T07:07:49.023Z,1016.95
2017-08-30T07:08:50.856Z,1016.97
2017-08-30T07:09:52.685Z,1016.95
2017-08-30T07:10:54.572Z,1017.00
2017-08-30T07:11:56.465Z,1017.02
2017-08-30T07:12:58.356Z,1017.03
2017-08-30T07:14:12.517Z,1016.94
2017-08-30T07:15:14.407Z,1016.99
2017-08-30T07:16:16.302Z,1017.07
2017-08-30T07:17:18.199Z,1017.04
2017-08-30T07:18:20.021Z,1017.02
2017-08-30T07:19:21.850Z,1017.04
2017-08-30T07:20:23.739Z,1017.03
2017-08-30T07:21:25.629Z,1017.08
2017-08-30T07:22:27.519Z,1017.05
2017-08-30T07:23:41.696Z,1017.04
2017-08-30T07:24:43.585Z,1017.08
2017-08-30T07:25:45.478Z,1017.08
2017-08-30T07:26:47.360Z,1017.11
2017-08-30T07:27:49.194Z,1017.09
2017-08-30T07:28:51.022Z,1017.06
2017-08-30T07:29:52.909Z,1017.07
2017-08-30T07:30:54.809Z,1017.08
2017-08-30T07:31:56.699Z,1017.08
2017-08-30T07:33:10.909Z,1017.04
2017-08-30T07:34:12.798Z,1017.06
2017-08-30T07:35:14.697Z,1017.08
2017-08-30T07:36:16.585Z,1017.06
2017-08-30T07:37:18.414Z,1017.11
2017-08-30T07:38:20.243Z,1017.16
2017-08-30T07:39:22.130Z,1017.12
2017-08-30T07:40:24.029Z,1017.13
2017-08-30T07:41:25.919Z,1017.15
2017-08-30T07:42:40.086Z,1017.14
2017-08-30T07:43:41.971Z,1017.08
2017-08-30T07:44:43.870Z,1017.15
2017-08-30T07:45:45.758Z,1017.14
2017-08-30T07:46:47.587Z,1017.14
2017-08-30T07:47:49.426Z,1017.15
2017-08-30T07:48:51.303Z,1017.14
2017-08-30T07:49:53.196Z,1017.13
2017-08-30T07:50:55.085Z,1017.14
2017-08-30T07:52:09.250Z,1017.14
2017-08-30T07:53:11.140Z,1017.13
2017-08-30T07:54:13.026Z,1017.16
2017-08-30T07:55:14.914Z,1017.15
2017-08-30T07:56:16.741Z,1017.16
2017-08-30T07:57:18.579Z,1017.19
2017-08-30T07:58:20.468Z,1017.17
2017-08-30T07:59:22.361Z,1017.16
2017-08-30T08:00:24.251Z,1017.17
2017-08-30T08:01:38.419Z,1017.17
2017-08-30T08:02:40.306Z,1017.15
2017-08-30T08:03:42.202Z,1017.13
2017-08-30T08:04:44.089Z,1017.14
2017-08-30T08:05:45.931Z,1017.18
2017-08-30T08:06:47.760Z,1017.20
2017-08-30T08:07:49.649Z,1017.14
2017-08-30T08:08:51.548Z,1017.12
2017-08-30T08:09:53.442Z,1017.16
2017-08-30T08:11:07.610Z,1017.17
2017-08-30T08:12:09.501Z,1017.16
2017-08-30T08:13:11.403Z,1017.15
2017-08-30T08:14:13.290Z,1017.12
2017-08-30T08:15:15.119Z,1017.15
2017-08-30T08:16:16.949Z,1017.18
2017-08-30T08:17:18.859Z,1017.11
2017-08-30T08:18:20.760Z,1017.16
2017-08-30T08:19:22.650Z,1017.11
2017-08-30T08:20:36.818Z,1017.16
2017-08-30T08:21:38.706Z,1017.14
2017-08-30T08:22:40.600Z,1017.17
2017-08-30T08:23:42.495Z,1017.12
2017-08-30T08:24:44.325Z,1017.14
2017-08-30T08:25:46.150Z,1017.10
2017-08-30T08:26:48.036Z,1017.15
2017-08-30T08:27:49.939Z,1017.16
2017-08-30T08:28:51.831Z,1017.15
2017-08-30T08:30:05.995Z,1017.16
2017-08-30T08:31:07.887Z,1017.12
2017-08-30T08:32:09.770Z,1017.11
2017-08-30T08:33:11.659Z,1017.05
2017-08-30T08:34:13.502Z,1017.08
2017-08-30T08:35:15.334Z,1017.09
2017-08-30T08:36:17.219Z,1017.09
2017-08-30T08:37:19.109Z,1017.01
2017-08-30T08:38:21.000Z,1017.03
2017-08-30T08:39:35.166Z,1017.05
2017-08-30T08:40:37.055Z,1017.12
2017-08-30T08:41:38.942Z,1017.13
2017-08-30T08:42:40.830Z,1017.05
2017-08-30T08:43:42.661Z,1017.02
2017-08-30T08:44:44.493Z,1017.06
2017-08-30T08:45:46.379Z,1017.07
2017-08-30T08:46:48.279Z,1017.03
2017-08-30T08:47:50.172Z,1017.05
2017-08-30T08:49:04.334Z,1017.03
2017-08-30T08:50:06.222Z,1017.10
2017-08-30T08:51:08.119Z,1017.08
2017-08-30T08:52:10.005Z,1017.04
2017-08-30T08:53:11.839Z,1017.04
2017-08-30T08:54:13.665Z,1017.03
2017-08-30T08:55:15.554Z,1017.08
2017-08-30T08:56:17.464Z,1017.04
2017-08-30T08:57:19.344Z,1017.03
2017-08-30T08:58:33.510Z,1017.07
2017-08-30T08:59:35.399Z,1017.08
2017-08-30T09:00:37.288Z,1017.09
2017-08-30T09:01:39.177Z,1017.07
2017-08-30T09:02:41.004Z,1017.03
2017-08-30T09:03:42.842Z,1017.03
2017-08-30T09:04:44.729Z,1017.04
2017-08-30T09:05:46.619Z,1017.05
2017-08-30T09:06:48.509Z,1017.02
2017-08-30T09:08:02.675Z,1017.01
2017-08-30T09:09:04.564Z,1017.04
2017-08-30T09:10:06.462Z,1017.02
2017-08-30T09:11:08.348Z,1016.99
2017-08-30T09:12:10.179Z,1016.96
2017-08-30T09:13:12.009Z,1016.96
2017-08-30T09:14:13.896Z,1016.89
2017-08-30T09:15:15.790Z,1016.83
2017-08-30T09:16:17.681Z,1016.88
2017-08-30T09:17:31.854Z,1016.86
2017-08-30T09:18:33.745Z,1016.85
2017-08-30T09:19:35.635Z,1016.85
2017-08-30T09:20:37.525Z,1016.89
2017-08-30T09:21:39.354Z,1016.88
2017-08-30T09:22:41.182Z,1016.89
2017-08-30T09:23:43.075Z,1016.90
2017-08-30T09:24:44.967Z,1016.87
2017-08-30T09:25:46.858Z,1016.83
2017-08-30T09:27:01.067Z,1016.83
2017-08-30T09:28:02.958Z,1016.85
2017-08-30T09:29:04.844Z,1016.86
2017-08-30T09:30:06.735Z,1016.90
2017-08-30T09:31:08.566Z,1016.92
2017-08-30T09:32:10.395Z,1016.92
2017-08-30T09:33:12.284Z,1016.88
2017-08-30T09:34:14.177Z,1016.90
2017-08-30T09:35:16.066Z,1016.92
2017-08-30T09:36:30.234Z,1016.86
2017-08-30T09:37:32.127Z,1016.85
2017-08-30T09:38:34.015Z,1016.92
2017-08-30T09:39:35.908Z,1016.87
2017-08-30T09:40:37.734Z,1016.89
2017-08-30T09:41:39.568Z,1016.86
2017-08-30T09:42:41.456Z,1016.87
2017-08-30T09:43:43.347Z,1016.85
2017-08-30T09:44:45.236Z,1016.88
2017-08-30T09:45:59.398Z,1016.81
2017-08-30T09:47:01.292Z,1016.79
2017-08-30T09:48:03.176Z,1016.73
2017-08-30T09:49:05.064Z,1016.72
2017-08-30T09:50:06.894Z,1016.73
2017-08-30T09:51:08.723Z,1016.71
2017-08-30T09:52:10.615Z,1016.70
2017-08-30T09:53:12.504Z,1016.67
2017-08-30T09:54:14.393Z,1016.73
2017-08-30T09:55:28.593Z,1016.61
2017-08-30T09:56:30.464Z,1016.66
2017-08-30T09:57:32.344Z,1016.61
2017-08-30T09:58:34.230Z,1016.65
2017-08-30T09:59:36.062Z,1016.69
2017-08-30T10:00:37.889Z,1016.73
2017-08-30T10:01:39.780Z,1016.71
2017-08-30T10:02:41.669Z,1016.71
2017-08-30T10:03:43.587Z,1016.74
2017-08-30T10:04:57.749Z,1016.69
2017-08-30T10:05:59.640Z,1016.71
2017-08-30T10:07:01.531Z,1016.73
2017-08-30T10:08:03.420Z,1016.69
2017-08-30T10:09:05.265Z,1016.73
2017-08-30T10:10:07.112Z,1016.63
2017-08-30T10:11:09.000Z,1016.62
2017-08-30T10:12:10.893Z,1016.65
2017-08-30T10:13:12.783Z,1016.64
2017-08-30T10:14:26.952Z,1016.65
2017-08-30T10:15:28.834Z,1016.57
2017-08-30T10:16:30.737Z,1016.57
2017-08-30T10:17:32.629Z,1016.53
2017-08-30T10:18:34.464Z,1016.59
2017-08-30T10:19:36.298Z,1016.51
2017-08-30T10:20:38.185Z,1016.52
2017-08-30T10:21:40.088Z,1016.52
2017-08-30T10:22:41.976Z,1016.50
2017-08-30T10:23:56.140Z,1016.47
2017-08-30T10:24:58.029Z,1016.47
2017-08-30T10:25:59.919Z,1016.49
2017-08-30T10:27:01.807Z,1016.44
2017-08-30T10:28:03.643Z,1016.45
2017-08-30T10:29:05.485Z,1016.43
2017-08-30T10:30:07.374Z,1016.41
2017-08-30T10:31:09.264Z,1016.42
2017-08-30T10:32:11.155Z,1016.45
2017-08-30T10:33:25.333Z,1016.44
2017-08-30T10:34:27.222Z,1016.44
2017-08-30T10:35:29.121Z,1016.48
2017-08-30T10:36:31.011Z,1016.38
2017-08-30T10:37:32.842Z,1016.35
2017-08-30T10:38:34.674Z,1016.37
2017-08-30T10:39:36.563Z,1016.34
2017-08-30T10:40:38.457Z,1016.33
2017-08-30T10:41:40.349Z,1016.35
2017-08-30T10:42:54.512Z,1016.27
2017-08-30T10:43:56.403Z,1016.26
2017-08-30T10:44:58.291Z,1016.27
2017-08-30T10:46:00.179Z,1016.21
2017-08-30T10:47:02.011Z,1016.22
2017-08-30T10:48:03.841Z,1016.19
2017-08-30T10:49:05.746Z,1016.20
2017-08-30T10:50:07.646Z,1016.20
2017-08-30T10:51:09.531Z,1016.21
2017-08-30T10:52:23.710Z,1016.14
2017-08-30T10:53:25.599Z,1016.19
2017-08-30T10:54:27.493Z,1016.19
2017-08-30T10:55:29.380Z,1016.16
2017-08-30T10:56:31.212Z,1016.18
2017-08-30T10:57:33.039Z,1016.17
2017-08-30T10:58:34.939Z,1016.16
2017-08-30T10:59:36.840Z,1016.19
2017-08-30T11:00:38.730Z,1016.18
2017-08-30T11:01:52.894Z,1016.16
2017-08-30T11:02:54.788Z,1016.17
2017-08-30T11:03:56.675Z,1016.15
2017-08-30T11:04:58.565Z,1016.19
2017-08-30T11:06:00.395Z,1016.17
2017-08-30T11:07:02.231Z,1016.12
2017-08-30T11:08:04.117Z,1016.11
2017-08-30T11:09:06.014Z,1016.12
2017-08-30T11:10:07.899Z,1016.07
2017-08-30T11:11:22.061Z,1016.10
2017-08-30T11:12:23.952Z,1016.11
2017-08-30T11:13:25.843Z,1016.08
2017-08-30T11:14:27.731Z,1016.07
2017-08-30T11:15:29.563Z,1016.07
2017-08-30T11:16:31.398Z,1016.05
2017-08-30T11:17:33.285Z,1016.01
2017-08-30T11:18:35.212Z,1016.00
2017-08-30T11:19:37.104Z,1016.04
2017-08-30T11:20:51.270Z,1016.04
2017-08-30T11:21:53.162Z,1016.01
2017-08-30T11:22:55.063Z,1015.96
2017-08-30T11:23:56.958Z,1015.98
2017-08-30T11:24:58.785Z,1015.97
2017-08-30T11:26:00.616Z,1015.95
2017-08-30T11:27:02.507Z,1015.96
2017-08-30T11:28:04.397Z,1015.94
2017-08-30T11:29:06.288Z,1015.91
2017-08-30T11:30:20.454Z,1015.97
2017-08-30T11:31:22.347Z,1015.99
2017-08-30T11:32:24.233Z,1015.92
2017-08-30T11:33:26.122Z,1015.93
2017-08-30T11:34:27.952Z,1015.90
2017-08-30T11:35:29.779Z,1015.87
2017-08-30T11:36:31.671Z,1015.88
2017-08-30T11:37:33.578Z,1015.91
2017-08-30T11:38:35.461Z,1015.90
2017-08-30T11:39:49.643Z,1015.91
2017-08-30T11:40:51.522Z,1015.94
2017-08-30T11:41:53.416Z,1015.95
2017-08-30T11:42:55.309Z,1015.96
2017-08-30T11:43:57.141Z,1015.95
2017-08-30T11:44:58.971Z,1015.93
2017-08-30T11:46:00.859Z,1015.89
2017-08-30T11:47:02.762Z,1015.88
2017-08-30T11:48:04.656Z,1015.88
2017-08-30T11:49:18.820Z,1015.92
2017-08-30T11:50:20.711Z,1015.85
2017-08-30T11:51:22.597Z,1015.83
2017-08-30T11:52:24.485Z,1015.78
2017-08-30T11:53:26.319Z,1015.79
2017-08-30T11:54:28.150Z,1015.80
2017-08-30T11:55:30.042Z,1015.80
2017-08-30T11:56:31.933Z,1015.79
2017-08-30T11:57:33.830Z,1015.77
2017-08-30T11:58:47.993Z,1015.87
2017-08-30T11:59:49.883Z,1015.87
2017-08-30T12:00:51.783Z,1015.83
2017-08-30T12:01:53.674Z,1015.86
2017-08-30T12:02:55.516Z,1015.82
2017-08-30T12:03:57.337Z,1015.86
2017-08-30T12:04:59.228Z,1015.84
2017-08-30T12:06:01.122Z,1015.78
2017-08-30T12:07:03.013Z,1015.81
2017-08-30T12:08:17.177Z,1015.81
2017-08-30T12:09:19.069Z,1015.76
2017-08-30T12:10:20.967Z,1015.85
2017-08-30T12:11:22.861Z,1015.77
2017-08-30T12:12:24.691Z,1015.85
2017-08-30T12:13:26.535Z,1015.79
2017-08-30T12:14:28.410Z,1015.82
2017-08-30T12:15:30.301Z,1015.82
2017-08-30T12:16:32.193Z,1015.77
2017-08-30T12:17:46.356Z,1015.77
2017-08-30T12:18:48.251Z,1015.81
2017-08-30T12:19:50.136Z,1015.81
2017-08-30T12:20:52.025Z,1015.80
2017-08-30T12:21:53.858Z,1015.76
2017-08-30T12:22:55.687Z,1015.75
2017-08-30T12:23:57.577Z,1015.79
2017-08-30T12:24:59.487Z,1015.75
2017-08-30T12:26:01.370Z,1015.73
2017-08-30T12:27:15.534Z,1015.72
2017-08-30T12:28:17.424Z,1015.75
2017-08-30T12:29:19.324Z,1015.70
2017-08-30T12:30:21.216Z,1015.72
2017-08-30T12:31:23.048Z,1015.78
2017-08-30T12:32:24.879Z,1015.72
2017-08-30T12:33:26.774Z,1015.75
2017-08-30T12:34:28.662Z,1015.66
2017-08-30T12:35:30.553Z,1015.69
2017-08-30T12:36:44.731Z,1015.65
2017-08-30T12:37:46.617Z,1015.61
2017-08-30T12:38:48.508Z,1015.66
2017-08-30T12:39:50.397Z,1015.65
2017-08-30T12:40:52.229Z,1015.67
2017-08-30T12:41:54.057Z,1015.63
2017-08-30T12:42:55.946Z,1015.65
2017-08-30T12:43:57.850Z,1015.58
2017-08-30T12:44:59.742Z,1015.59